sensor_id;sensor_type;location;lat;lon;timestamp;P1;durP1;ratioP1;P2;durP2;ratioP2
7340;SDS011;6870;50.944;6.932;2023-01-30T00:02:14;3.37;;;2.73;;
7340;SDS011;6870;50.944;6.932;2023-01-30T00:04:42;3.60;;;3.00;;
7340;SDS011;6870;50.944;6.932;2023-01-30T00:07:12;3.17;;;2.87;;
7340;SDS011;6870;50.944;6.932;2023-01-30T00:09:40;2.50;;;2.30;;
7340;SDS011;6870;50.944;6.932;2023-01-30T00:12:09;3.23;;;2.93;;
7340;SDS011;6870;50.944;6.932;2023-01-30T00:14:37;3.40;;;3.10;;
7340;SDS011;6870;50.944;6.932;2023-01-30T00:17:05;3.40;;;3.00;;
7340;SDS011;6870;50.944;6.932;2023-01-30T00:19:33;3.23;;;2.83;;
7340;SDS011;6870;50.944;6.932;2023-01-30T00:22:02;4.20;;;2.80;;
7340;SDS011;6870;50.944;6.932;2023-01-30T00:24:31;4.20;;;3.40;;
7340;SDS011;6870;50.944;6.932;2023-01-30T00:27:00;2.90;;;2.00;;
7340;SDS011;6870;50.944;6.932;2023-01-30T00:29:28;3.87;;;3.30;;
7340;SDS011;6870;50.944;6.932;2023-01-30T00:31:56;3.37;;;2.60;;
7340;SDS011;6870;50.944;6.932;2023-01-30T00:34:25;7.40;;;3.50;;
7340;SDS011;6870;50.944;6.932;2023-01-30T00:36:53;7.83;;;4.17;;
7340;SDS011;6870;50.944;6.932;2023-01-30T00:39:35;7.23;;;3.93;;
7340;SDS011;6870;50.944;6.932;2023-01-30T00:42:03;8.50;;;3.93;;
7340;SDS011;6870;50.944;6.932;2023-01-30T00:44:50;4.50;;;3.80;;
7340;SDS011;6870;50.944;6.932;2023-01-30T00:47:35;7.10;;;3.20;;
7340;SDS011;6870;50.944;6.932;2023-01-30T00:50:04;5.03;;;3.13;;
7340;SDS011;6870;50.944;6.932;2023-01-30T00:52:33;7.13;;;3.53;;
7340;SDS011;6870;50.944;6.932;2023-01-30T00:55:03;7.07;;;3.60;;
7340;SDS011;6870;50.944;6.932;2023-01-30T00:57:32;6.80;;;3.50;;
7340;SDS011;6870;50.944;6.932;2023-01-30T01:00:00;9.33;;;3.60;;
7340;SDS011;6870;50.944;6.932;2023-01-30T01:02:30;5.30;;;3.00;;
7340;SDS011;6870;50.944;6.932;2023-01-30T01:04:58;6.90;;;3.10;;
7340;SDS011;6870;50.944;6.932;2023-01-30T01:07:27;4.33;;;2.80;;
7340;SDS011;6870;50.944;6.932;2023-01-30T01:09:55;4.77;;;3.30;;
7340;SDS011;6870;50.944;6.932;2023-01-30T01:12:25;4.77;;;2.63;;
7340;SDS011;6870;50.944;6.932;2023-01-30T01:14:54;5.57;;;2.40;;
7340;SDS011;6870;50.944;6.932;2023-01-30T01:17:22;3.80;;;2.60;;
7340;SDS011;6870;50.944;6.932;2023-01-30T01:19:50;8.43;;;2.70;;
7340;SDS011;6870;50.944;6.932;2023-01-30T01:22:18;9.30;;;3.20;;
7340;SDS011;6870;50.944;6.932;2023-01-30T01:24:47;5.50;;;2.57;;
7340;SDS011;6870;50.944;6.932;2023-01-30T01:27:15;10.83;;;3.60;;
7340;SDS011;6870;50.944;6.932;2023-01-30T01:29:46;4.73;;;3.00;;
7340;SDS011;6870;50.944;6.932;2023-01-30T01:32:14;2.80;;;2.23;;
7340;SDS011;6870;50.944;6.932;2023-01-30T01:34:42;4.63;;;2.77;;
7340;SDS011;6870;50.944;6.932;2023-01-30T01:37:11;3.10;;;2.50;;
7340;SDS011;6870;50.944;6.932;2023-01-30T01:39:39;4.70;;;2.80;;
7340;SDS011;6870;50.944;6.932;2023-01-30T01:42:25;12.00;;;2.90;;
7340;SDS011;6870;50.944;6.932;2023-01-30T01:45:03;4.00;;;2.60;;
7340;SDS011;6870;50.944;6.932;2023-01-30T01:47:46;5.83;;;2.60;;
7340;SDS011;6870;50.944;6.932;2023-01-30T01:50:25;5.57;;;2.87;;
7340;SDS011;6870;50.944;6.932;2023-01-30T01:52:58;4.03;;;1.97;;
7340;SDS011;6870;50.944;6.932;2023-01-30T01:55:28;7.50;;;2.50;;
7340;SDS011;6870;50.944;6.932;2023-01-30T01:57:58;12.23;;;2.80;;
7340;SDS011;6870;50.944;6.932;2023-01-30T02:00:33;4.77;;;2.80;;
7340;SDS011;6870;50.944;6.932;2023-01-30T02:03:02;3.50;;;2.43;;
7340;SDS011;6870;50.944;6.932;2023-01-30T02:05:34;5.67;;;3.00;;
7340;SDS011;6870;50.944;6.932;2023-01-30T02:08:09;5.00;;;3.13;;
7340;SDS011;6870;50.944;6.932;2023-01-30T02:10:43;6.27;;;3.03;;
7340;SDS011;6870;50.944;6.932;2023-01-30T02:13:17;6.00;;;3.10;;
7340;SDS011;6870;50.944;6.932;2023-01-30T02:15:47;3.13;;;2.73;;
7340;SDS011;6870;50.944;6.932;2023-01-30T02:18:16;6.70;;;2.20;;
7340;SDS011;6870;50.944;6.932;2023-01-30T02:20:53;5.40;;;2.27;;
7340;SDS011;6870;50.944;6.932;2023-01-30T02:23:46;4.10;;;2.90;;
7340;SDS011;6870;50.944;6.932;2023-01-30T02:29:50;3.10;;;2.80;;
7340;SDS011;6870;50.944;6.932;2023-01-30T02:32:37;4.17;;;2.37;;
7340;SDS011;6870;50.944;6.932;2023-01-30T02:35:13;5.30;;;2.77;;
7340;SDS011;6870;50.944;6.932;2023-01-30T02:37:53;3.83;;;2.57;;
7340;SDS011;6870;50.944;6.932;2023-01-30T02:40:37;3.40;;;2.10;;
7340;SDS011;6870;50.944;6.932;2023-01-30T02:43:12;2.70;;;2.00;;
7340;SDS011;6870;50.944;6.932;2023-01-30T02:45:49;3.63;;;2.77;;
7340;SDS011;6870;50.944;6.932;2023-01-30T02:48:26;5.27;;;2.80;;
7340;SDS011;6870;50.944;6.932;2023-01-30T02:51:02;7.90;;;2.73;;
7340;SDS011;6870;50.944;6.932;2023-01-30T02:53:33;3.70;;;2.83;;
7340;SDS011;6870;50.944;6.932;2023-01-30T02:56:03;2.13;;;1.93;;
7340;SDS011;6870;50.944;6.932;2023-01-30T02:58:32;5.33;;;2.50;;
7340;SDS011;6870;50.944;6.932;2023-01-30T03:01:15;4.50;;;3.13;;
7340;SDS011;6870;50.944;6.932;2023-01-30T03:04:10;6.70;;;3.17;;
7340;SDS011;6870;50.944;6.932;2023-01-30T03:07:08;4.60;;;2.60;;
7340;SDS011;6870;50.944;6.932;2023-01-30T03:09:47;2.60;;;2.10;;
7340;SDS011;6870;50.944;6.932;2023-01-30T03:12:23;3.67;;;2.17;;
7340;SDS011;6870;50.944;6.932;2023-01-30T03:15:08;2.50;;;2.20;;
7340;SDS011;6870;50.944;6.932;2023-01-30T03:17:41;6.97;;;2.90;;
7340;SDS011;6870;50.944;6.932;2023-01-30T03:20:13;2.20;;;1.77;;
7340;SDS011;6870;50.944;6.932;2023-01-30T03:22:42;3.00;;;2.67;;
7340;SDS011;6870;50.944;6.932;2023-01-30T03:25:10;3.70;;;2.10;;
7340;SDS011;6870;50.944;6.932;2023-01-30T03:27:42;3.67;;;2.17;;
7340;SDS011;6870;50.944;6.932;2023-01-30T03:30:12;4.40;;;2.20;;
7340;SDS011;6870;50.944;6.932;2023-01-30T03:32:40;3.10;;;1.77;;
7340;SDS011;6870;50.944;6.932;2023-01-30T03:35:08;4.63;;;2.40;;
7340;SDS011;6870;50.944;6.932;2023-01-30T03:37:38;4.63;;;2.63;;
7340;SDS011;6870;50.944;6.932;2023-01-30T03:40:06;4.07;;;2.37;;
7340;SDS011;6870;50.944;6.932;2023-01-30T03:42:36;5.03;;;2.00;;
7340;SDS011;6870;50.944;6.932;2023-01-30T03:45:04;5.73;;;2.90;;
7340;SDS011;6870;50.944;6.932;2023-01-30T03:47:34;7.00;;;2.40;;
7340;SDS011;6870;50.944;6.932;2023-01-30T03:50:02;3.60;;;2.33;;
7340;SDS011;6870;50.944;6.932;2023-01-30T03:52:33;6.20;;;2.50;;
7340;SDS011;6870;50.944;6.932;2023-01-30T03:55:03;4.90;;;2.00;;
7340;SDS011;6870;50.944;6.932;2023-01-30T03:57:32;3.50;;;2.00;;
7340;SDS011;6870;50.944;6.932;2023-01-30T04:00:00;4.97;;;2.63;;
7340;SDS011;6870;50.944;6.932;2023-01-30T04:02:29;3.37;;;2.30;;
7340;SDS011;6870;50.944;6.932;2023-01-30T04:04:57;2.60;;;2.17;;
7340;SDS011;6870;50.944;6.932;2023-01-30T04:07:27;5.10;;;1.93;;
7340;SDS011;6870;50.944;6.932;2023-01-30T04:09:55;2.83;;;2.23;;
7340;SDS011;6870;50.944;6.932;2023-01-30T04:12:24;4.40;;;2.37;;
7340;SDS011;6870;50.944;6.932;2023-01-30T04:14:52;8.17;;;2.50;;
7340;SDS011;6870;50.944;6.932;2023-01-30T04:17:20;2.30;;;1.70;;
7340;SDS011;6870;50.944;6.932;2023-01-30T04:19:48;6.70;;;1.93;;
7340;SDS011;6870;50.944;6.932;2023-01-30T04:22:16;5.17;;;2.30;;
7340;SDS011;6870;50.944;6.932;2023-01-30T04:24:44;2.43;;;1.83;;
7340;SDS011;6870;50.944;6.932;2023-01-30T04:27:12;2.33;;;1.80;;
7340;SDS011;6870;50.944;6.932;2023-01-30T04:29:42;4.10;;;2.60;;
7340;SDS011;6870;50.944;6.932;2023-01-30T04:32:10;4.63;;;2.13;;
7340;SDS011;6870;50.944;6.932;2023-01-30T04:34:37;2.70;;;2.10;;
7340;SDS011;6870;50.944;6.932;2023-01-30T04:37:05;5.30;;;2.33;;
7340;SDS011;6870;50.944;6.932;2023-01-30T04:39:33;2.50;;;2.03;;
7340;SDS011;6870;50.944;6.932;2023-01-30T04:42:01;3.50;;;2.07;;
7340;SDS011;6870;50.944;6.932;2023-01-30T04:44:30;3.60;;;2.70;;
7340;SDS011;6870;50.944;6.932;2023-01-30T04:46:59;2.03;;;1.83;;
7340;SDS011;6870;50.944;6.932;2023-01-30T04:49:27;5.30;;;2.00;;
7340;SDS011;6870;50.944;6.932;2023-01-30T04:51:55;5.40;;;2.00;;
7340;SDS011;6870;50.944;6.932;2023-01-30T04:54:23;2.30;;;1.60;;
7340;SDS011;6870;50.944;6.932;2023-01-30T04:56:51;2.77;;;2.03;;
7340;SDS011;6870;50.944;6.932;2023-01-30T04:59:19;5.00;;;1.80;;
7340;SDS011;6870;50.944;6.932;2023-01-30T05:01:47;5.43;;;2.23;;
7340;SDS011;6870;50.944;6.932;2023-01-30T05:04:17;9.23;;;2.37;;
7340;SDS011;6870;50.944;6.932;2023-01-30T05:06:44;3.53;;;1.83;;
7340;SDS011;6870;50.944;6.932;2023-01-30T05:09:13;3.53;;;1.87;;
7340;SDS011;6870;50.944;6.932;2023-01-30T05:11:41;5.30;;;2.00;;
7340;SDS011;6870;50.944;6.932;2023-01-30T05:14:09;3.40;;;1.90;;
7340;SDS011;6870;50.944;6.932;2023-01-30T05:16:37;3.07;;;2.00;;
7340;SDS011;6870;50.944;6.932;2023-01-30T05:19:05;2.50;;;1.90;;
7340;SDS011;6870;50.944;6.932;2023-01-30T05:21:34;3.10;;;1.93;;
7340;SDS011;6870;50.944;6.932;2023-01-30T05:24:03;2.37;;;2.17;;
7340;SDS011;6870;50.944;6.932;2023-01-30T05:26:31;2.60;;;1.90;;
7340;SDS011;6870;50.944;6.932;2023-01-30T05:28:59;4.40;;;1.80;;
7340;SDS011;6870;50.944;6.932;2023-01-30T05:31:28;3.00;;;2.00;;
7340;SDS011;6870;50.944;6.932;2023-01-30T05:33:56;2.57;;;1.67;;
7340;SDS011;6870;50.944;6.932;2023-01-30T05:36:24;2.40;;;1.63;;
7340;SDS011;6870;50.944;6.932;2023-01-30T05:38:53;1.80;;;1.43;;
7340;SDS011;6870;50.944;6.932;2023-01-30T05:41:21;2.40;;;2.00;;
7340;SDS011;6870;50.944;6.932;2023-01-30T05:43:49;2.63;;;1.90;;
7340;SDS011;6870;50.944;6.932;2023-01-30T05:46:18;3.17;;;2.30;;
7340;SDS011;6870;50.944;6.932;2023-01-30T05:48:46;2.80;;;1.57;;
7340;SDS011;6870;50.944;6.932;2023-01-30T05:51:15;3.60;;;1.70;;
7340;SDS011;6870;50.944;6.932;2023-01-30T05:53:45;2.10;;;1.60;;
7340;SDS011;6870;50.944;6.932;2023-01-30T05:56:15;3.67;;;1.60;;
7340;SDS011;6870;50.944;6.932;2023-01-30T05:58:48;4.20;;;1.83;;
7340;SDS011;6870;50.944;6.932;2023-01-30T06:01:18;2.07;;;1.60;;
7340;SDS011;6870;50.944;6.932;2023-01-30T06:03:46;3.30;;;1.90;;
7340;SDS011;6870;50.944;6.932;2023-01-30T06:06:15;4.83;;;1.67;;
7340;SDS011;6870;50.944;6.932;2023-01-30T06:08:43;2.13;;;1.50;;
7340;SDS011;6870;50.944;6.932;2023-01-30T06:11:12;2.03;;;1.40;;
7340;SDS011;6870;50.944;6.932;2023-01-30T06:13:43;2.93;;;1.97;;
7340;SDS011;6870;50.944;6.932;2023-01-30T06:16:11;2.80;;;1.70;;
7340;SDS011;6870;50.944;6.932;2023-01-30T06:18:42;3.77;;;1.70;;
7340;SDS011;6870;50.944;6.932;2023-01-30T06:21:12;3.47;;;1.77;;
7340;SDS011;6870;50.944;6.932;2023-01-30T06:23:41;2.10;;;1.90;;
7340;SDS011;6870;50.944;6.932;2023-01-30T06:26:11;1.60;;;1.30;;
7340;SDS011;6870;50.944;6.932;2023-01-30T06:28:40;3.10;;;2.00;;
7340;SDS011;6870;50.944;6.932;2023-01-30T06:31:09;2.17;;;1.97;;
7340;SDS011;6870;50.944;6.932;2023-01-30T06:33:37;1.57;;;1.30;;
7340;SDS011;6870;50.944;6.932;2023-01-30T06:36:06;3.50;;;1.67;;
7340;SDS011;6870;50.944;6.932;2023-01-30T06:38:34;2.73;;;1.33;;
7340;SDS011;6870;50.944;6.932;2023-01-30T06:41:02;3.20;;;1.73;;
7340;SDS011;6870;50.944;6.932;2023-01-30T06:43:31;3.17;;;1.43;;
7340;SDS011;6870;50.944;6.932;2023-01-30T06:46:00;3.73;;;1.80;;
7340;SDS011;6870;50.944;6.932;2023-01-30T06:48:28;4.70;;;1.97;;
7340;SDS011;6870;50.944;6.932;2023-01-30T06:50:56;2.17;;;1.63;;
7340;SDS011;6870;50.944;6.932;2023-01-30T06:53:24;1.33;;;1.23;;
7340;SDS011;6870;50.944;6.932;2023-01-30T06:55:55;1.97;;;1.30;;
7340;SDS011;6870;50.944;6.932;2023-01-30T06:58:24;1.53;;;1.43;;
7340;SDS011;6870;50.944;6.932;2023-01-30T07:00:52;2.17;;;1.80;;
7340;SDS011;6870;50.944;6.932;2023-01-30T07:03:21;2.57;;;1.50;;
7340;SDS011;6870;50.944;6.932;2023-01-30T07:05:50;1.73;;;1.30;;
7340;SDS011;6870;50.944;6.932;2023-01-30T07:08:18;2.90;;;1.60;;
7340;SDS011;6870;50.944;6.932;2023-01-30T07:10:49;1.60;;;1.50;;
7340;SDS011;6870;50.944;6.932;2023-01-30T07:13:17;2.50;;;1.00;;
7340;SDS011;6870;50.944;6.932;2023-01-30T07:15:45;2.00;;;1.47;;
7340;SDS011;6870;50.944;6.932;2023-01-30T07:18:13;2.20;;;1.27;;
7340;SDS011;6870;50.944;6.932;2023-01-30T07:20:46;2.90;;;1.70;;
7340;SDS011;6870;50.944;6.932;2023-01-30T07:23:16;4.13;;;1.60;;
7340;SDS011;6870;50.944;6.932;2023-01-30T07:25:44;4.60;;;1.63;;
7340;SDS011;6870;50.944;6.932;2023-01-30T07:28:12;2.33;;;1.77;;
7340;SDS011;6870;50.944;6.932;2023-01-30T07:30:40;1.77;;;1.30;;
7340;SDS011;6870;50.944;6.932;2023-01-30T07:33:08;3.77;;;1.50;;
7340;SDS011;6870;50.944;6.932;2023-01-30T07:35:37;1.57;;;1.40;;
7340;SDS011;6870;50.944;6.932;2023-01-30T07:38:06;1.43;;;1.20;;
7340;SDS011;6870;50.944;6.932;2023-01-30T07:40:34;1.97;;;1.47;;
7340;SDS011;6870;50.944;6.932;2023-01-30T07:43:03;1.63;;;1.50;;
7340;SDS011;6870;50.944;6.932;2023-01-30T07:45:34;1.40;;;1.17;;
7340;SDS011;6870;50.944;6.932;2023-01-30T07:48:04;6.10;;;1.40;;
7340;SDS011;6870;50.944;6.932;2023-01-30T07:50:32;2.93;;;1.77;;
7340;SDS011;6870;50.944;6.932;2023-01-30T07:53:01;3.70;;;1.70;;
7340;SDS011;6870;50.944;6.932;2023-01-30T07:55:31;1.83;;;1.37;;
7340;SDS011;6870;50.944;6.932;2023-01-30T07:58:00;2.50;;;1.57;;
7340;SDS011;6870;50.944;6.932;2023-01-30T08:00:28;2.00;;;1.50;;
7340;SDS011;6870;50.944;6.932;2023-01-30T08:02:56;3.33;;;1.37;;
7340;SDS011;6870;50.944;6.932;2023-01-30T08:05:24;1.80;;;1.23;;
7340;SDS011;6870;50.944;6.932;2023-01-30T08:07:54;3.77;;;1.43;;
7340;SDS011;6870;50.944;6.932;2023-01-30T08:10:22;1.77;;;1.27;;
7340;SDS011;6870;50.944;6.932;2023-01-30T08:12:52;7.80;;;1.50;;
7340;SDS011;6870;50.944;6.932;2023-01-30T08:15:20;2.73;;;1.20;;
7340;SDS011;6870;50.944;6.932;2023-01-30T08:17:52;2.97;;;1.50;;
7340;SDS011;6870;50.944;6.932;2023-01-30T08:20:21;2.17;;;1.53;;
7340;SDS011;6870;50.944;6.932;2023-01-30T08:22:49;1.90;;;1.40;;
7340;SDS011;6870;50.944;6.932;2023-01-30T08:25:18;4.03;;;1.50;;
7340;SDS011;6870;50.944;6.932;2023-01-30T08:27:46;9.70;;;1.53;;
7340;SDS011;6870;50.944;6.932;2023-01-30T08:30:16;5.10;;;1.40;;
7340;SDS011;6870;50.944;6.932;2023-01-30T08:32:46;2.40;;;1.40;;
7340;SDS011;6870;50.944;6.932;2023-01-30T08:35:14;2.47;;;1.80;;
7340;SDS011;6870;50.944;6.932;2023-01-30T08:37:42;2.37;;;1.40;;
7340;SDS011;6870;50.944;6.932;2023-01-30T08:40:11;6.07;;;1.30;;
7340;SDS011;6870;50.944;6.932;2023-01-30T08:42:42;1.67;;;1.47;;
7340;SDS011;6870;50.944;6.932;2023-01-30T08:45:10;2.60;;;0.93;;
7340;SDS011;6870;50.944;6.932;2023-01-30T08:47:40;7.17;;;1.70;;
7340;SDS011;6870;50.944;6.932;2023-01-30T08:50:08;7.20;;;3.80;;
7340;SDS011;6870;50.944;6.932;2023-01-30T08:52:37;3.50;;;3.07;;
7340;SDS011;6870;50.944;6.932;2023-01-30T08:55:05;4.30;;;3.70;;
7340;SDS011;6870;50.944;6.932;2023-01-30T08:57:35;5.83;;;3.80;;
7340;SDS011;6870;50.944;6.932;2023-01-30T09:00:03;7.60;;;3.70;;
7340;SDS011;6870;50.944;6.932;2023-01-30T09:02:33;3.73;;;3.37;;
7340;SDS011;6870;50.944;6.932;2023-01-30T09:05:02;8.10;;;3.30;;
7340;SDS011;6870;50.944;6.932;2023-01-30T09:07:31;4.93;;;2.73;;
7340;SDS011;6870;50.944;6.932;2023-01-30T09:10:00;5.03;;;2.60;;
7340;SDS011;6870;50.944;6.932;2023-01-30T09:12:28;4.83;;;2.37;;
7340;SDS011;6870;50.944;6.932;2023-01-30T09:14:56;5.07;;;2.90;;
7340;SDS011;6870;50.944;6.932;2023-01-30T09:17:25;6.80;;;1.80;;
7340;SDS011;6870;50.944;6.932;2023-01-30T09:19:54;4.37;;;2.33;;
7340;SDS011;6870;50.944;6.932;2023-01-30T09:22:24;3.73;;;2.43;;
7340;SDS011;6870;50.944;6.932;2023-01-30T09:24:52;3.13;;;2.50;;
7340;SDS011;6870;50.944;6.932;2023-01-30T09:27:20;2.70;;;2.40;;
7340;SDS011;6870;50.944;6.932;2023-01-30T09:29:48;3.10;;;2.23;;
7340;SDS011;6870;50.944;6.932;2023-01-30T09:32:16;4.00;;;2.40;;
7340;SDS011;6870;50.944;6.932;2023-01-30T09:34:44;4.37;;;2.63;;
7340;SDS011;6870;50.944;6.932;2023-01-30T09:37:12;4.57;;;1.97;;
7340;SDS011;6870;50.944;6.932;2023-01-30T09:39:41;5.90;;;3.30;;
7340;SDS011;6870;50.944;6.932;2023-01-30T09:42:28;2.90;;;1.87;;
7340;SDS011;6870;50.944;6.932;2023-01-30T09:45:28;6.00;;;2.60;;
7340;SDS011;6870;50.944;6.932;2023-01-30T09:48:09;4.10;;;2.77;;
7340;SDS011;6870;50.944;6.932;2023-01-30T09:53:56;3.53;;;2.10;;
7340;SDS011;6870;50.944;6.932;2023-01-30T09:56:38;3.40;;;2.00;;
7340;SDS011;6870;50.944;6.932;2023-01-30T09:59:09;5.10;;;3.00;;
7340;SDS011;6870;50.944;6.932;2023-01-30T10:01:53;2.70;;;2.07;;
7340;SDS011;6870;50.944;6.932;2023-01-30T10:04:29;2.70;;;2.20;;
7340;SDS011;6870;50.944;6.932;2023-01-30T10:07:03;3.23;;;2.10;;
7340;SDS011;6870;50.944;6.932;2023-01-30T10:09:45;7.10;;;2.93;;
7340;SDS011;6870;50.944;6.932;2023-01-30T10:12:26;4.43;;;2.47;;
7340;SDS011;6870;50.944;6.932;2023-01-30T10:15:13;2.30;;;1.80;;
7340;SDS011;6870;50.944;6.932;2023-01-30T10:17:58;5.00;;;2.72;;
7340;SDS011;6870;50.944;6.932;2023-01-30T10:20:48;3.20;;;2.40;;
7340;SDS011;6870;50.944;6.932;2023-01-30T10:23:37;5.93;;;2.87;;
7340;SDS011;6870;50.944;6.932;2023-01-30T10:26:24;6.80;;;1.77;;
7340;SDS011;6870;50.944;6.932;2023-01-30T10:28:56;3.60;;;2.53;;
7340;SDS011;6870;50.944;6.932;2023-01-30T10:31:35;7.07;;;2.47;;
7340;SDS011;6870;50.944;6.932;2023-01-30T10:34:10;4.33;;;2.17;;
7340;SDS011;6870;50.944;6.932;2023-01-30T10:36:42;6.67;;;2.73;;
7340;SDS011;6870;50.944;6.932;2023-01-30T10:39:21;7.30;;;3.00;;
7340;SDS011;6870;50.944;6.932;2023-01-30T10:41:56;8.17;;;2.30;;
7340;SDS011;6870;50.944;6.932;2023-01-30T10:44:33;4.27;;;2.33;;
7340;SDS011;6870;50.944;6.932;2023-01-30T10:50:14;5.30;;;2.20;;
7340;SDS011;6870;50.944;6.932;2023-01-30T10:52:50;3.80;;;1.83;;
7340;SDS011;6870;50.944;6.932;2023-01-30T10:55:28;4.10;;;2.23;;
7340;SDS011;6870;50.944;6.932;2023-01-30T10:58:05;4.77;;;2.90;;
7340;SDS011;6870;50.944;6.932;2023-01-30T11:00:44;2.20;;;1.63;;
7340;SDS011;6870;50.944;6.932;2023-01-30T11:03:20;3.63;;;2.50;;
7340;SDS011;6870;50.944;6.932;2023-01-30T11:05:53;5.23;;;2.93;;
7340;SDS011;6870;50.944;6.932;2023-01-30T11:08:27;5.43;;;2.03;;
7340;SDS011;6870;50.944;6.932;2023-01-30T11:10:57;2.97;;;2.00;;
7340;SDS011;6870;50.944;6.932;2023-01-30T11:13:27;4.13;;;2.20;;
7340;SDS011;6870;50.944;6.932;2023-01-30T11:15:59;3.93;;;2.10;;
7340;SDS011;6870;50.944;6.932;2023-01-30T11:18:33;2.40;;;2.20;;
7340;SDS011;6870;50.944;6.932;2023-01-30T11:21:32;3.10;;;2.20;;
7340;SDS011;6870;50.944;6.932;2023-01-30T11:24:12;6.17;;;2.20;;
7340;SDS011;6870;50.944;6.932;2023-01-30T11:26:43;6.67;;;2.50;;
7340;SDS011;6870;50.944;6.932;2023-01-30T11:29:14;20.73;;;2.60;;
7340;SDS011;6870;50.944;6.932;2023-01-30T11:31:52;3.10;;;1.87;;
7340;SDS011;6870;50.944;6.932;2023-01-30T11:34:21;16.73;;;2.90;;
7340;SDS011;6870;50.944;6.932;2023-01-30T11:36:51;2.33;;;1.53;;
7340;SDS011;6870;50.944;6.932;2023-01-30T11:39:21;5.17;;;1.93;;
7340;SDS011;6870;50.944;6.932;2023-01-30T11:41:58;6.87;;;3.00;;
7340;SDS011;6870;50.944;6.932;2023-01-30T11:44:31;8.97;;;2.97;;
7340;SDS011;6870;50.944;6.932;2023-01-30T11:47:03;3.10;;;2.07;;
7340;SDS011;6870;50.944;6.932;2023-01-30T11:49:36;9.10;;;2.00;;
7340;SDS011;6870;50.944;6.932;2023-01-30T11:52:32;7.40;;;2.50;;
7340;SDS011;6870;50.944;6.932;2023-01-30T11:55:03;2.53;;;1.93;;
7340;SDS011;6870;50.944;6.932;2023-01-30T11:57:39;4.33;;;2.23;;
7340;SDS011;6870;50.944;6.932;2023-01-30T12:00:13;8.80;;;2.00;;
7340;SDS011;6870;50.944;6.932;2023-01-30T12:02:48;4.23;;;2.33;;
7340;SDS011;6870;50.944;6.932;2023-01-30T12:05:21;3.77;;;1.80;;
7340;SDS011;6870;50.944;6.932;2023-01-30T12:08:10;2.90;;;1.80;;
7340;SDS011;6870;50.944;6.932;2023-01-30T12:11:22;2.53;;;2.30;;
7340;SDS011;6870;50.944;6.932;2023-01-30T12:13:58;8.43;;;1.90;;
7340;SDS011;6870;50.944;6.932;2023-01-30T12:16:52;7.47;;;1.90;;
7340;SDS011;6870;50.944;6.932;2023-01-30T12:19:42;4.13;;;2.10;;
7340;SDS011;6870;50.944;6.932;2023-01-30T12:22:21;3.70;;;1.87;;
7340;SDS011;6870;50.944;6.932;2023-01-30T12:24:58;4.90;;;2.07;;
7340;SDS011;6870;50.944;6.932;2023-01-30T12:27:30;5.17;;;2.30;;
7340;SDS011;6870;50.944;6.932;2023-01-30T12:30:17;8.07;;;2.60;;
7340;SDS011;6870;50.944;6.932;2023-01-30T12:32:59;3.97;;;2.00;;
7340;SDS011;6870;50.944;6.932;2023-01-30T12:35:34;7.40;;;2.43;;
7340;SDS011;6870;50.944;6.932;2023-01-30T12:38:22;2.20;;;1.77;;
7340;SDS011;6870;50.944;6.932;2023-01-30T12:41:07;3.07;;;1.67;;
7340;SDS011;6870;50.944;6.932;2023-01-30T12:43:59;4.80;;;2.10;;
7340;SDS011;6870;50.944;6.932;2023-01-30T12:46:53;6.50;;;2.70;;
7340;SDS011;6870;50.944;6.932;2023-01-30T12:49:37;7.00;;;2.33;;
7340;SDS011;6870;50.944;6.932;2023-01-30T12:52:32;5.57;;;2.03;;
7340;SDS011;6870;50.944;6.932;2023-01-30T12:55:21;4.73;;;1.63;;
7340;SDS011;6870;50.944;6.932;2023-01-30T12:58:01;4.77;;;1.87;;
7340;SDS011;6870;50.944;6.932;2023-01-30T13:00:40;7.10;;;2.30;;
7340;SDS011;6870;50.944;6.932;2023-01-30T13:03:25;6.20;;;1.90;;
7340;SDS011;6870;50.944;6.932;2023-01-30T13:06:06;12.53;;;1.87;;
7340;SDS011;6870;50.944;6.932;2023-01-30T13:08:53;4.50;;;2.00;;
7340;SDS011;6870;50.944;6.932;2023-01-30T13:11:36;6.60;;;2.53;;
7340;SDS011;6870;50.944;6.932;2023-01-30T13:14:14;4.57;;;2.50;;
7340;SDS011;6870;50.944;6.932;2023-01-30T13:16:54;3.43;;;2.00;;
7340;SDS011;6870;50.944;6.932;2023-01-30T13:19:39;4.73;;;1.70;;
7340;SDS011;6870;50.944;6.932;2023-01-30T13:22:12;4.00;;;2.33;;
7340;SDS011;6870;50.944;6.932;2023-01-30T13:24:56;3.03;;;1.90;;
7340;SDS011;6870;50.944;6.932;2023-01-30T13:27:31;3.40;;;1.93;;
7340;SDS011;6870;50.944;6.932;2023-01-30T13:30:03;4.20;;;2.40;;
7340;SDS011;6870;50.944;6.932;2023-01-30T13:32:36;3.00;;;1.67;;
7340;SDS011;6870;50.944;6.932;2023-01-30T13:35:09;5.07;;;1.80;;
7340;SDS011;6870;50.944;6.932;2023-01-30T13:37:43;5.10;;;2.00;;
7340;SDS011;6870;50.944;6.932;2023-01-30T13:40:16;6.93;;;1.90;;
7340;SDS011;6870;50.944;6.932;2023-01-30T13:42:49;6.30;;;2.00;;
7340;SDS011;6870;50.944;6.932;2023-01-30T13:45:24;4.23;;;2.00;;
7340;SDS011;6870;50.944;6.932;2023-01-30T13:48:01;4.53;;;2.00;;
7340;SDS011;6870;50.944;6.932;2023-01-30T13:50:49;4.43;;;2.00;;
7340;SDS011;6870;50.944;6.932;2023-01-30T13:53:32;4.67;;;1.57;;
7340;SDS011;6870;50.944;6.932;2023-01-30T13:56:10;4.50;;;1.60;;
7340;SDS011;6870;50.944;6.932;2023-01-30T13:59:08;3.90;;;2.43;;
7340;SDS011;6870;50.944;6.932;2023-01-30T14:04:45;5.90;;;1.93;;
7340;SDS011;6870;50.944;6.932;2023-01-30T14:07:17;4.80;;;1.73;;
7340;SDS011;6870;50.944;6.932;2023-01-30T14:10:02;4.07;;;1.67;;
7340;SDS011;6870;50.944;6.932;2023-01-30T14:12:41;3.90;;;1.87;;
7340;SDS011;6870;50.944;6.932;2023-01-30T14:15:20;4.87;;;2.17;;
7340;SDS011;6870;50.944;6.932;2023-01-30T14:17:58;10.57;;;2.07;;
7340;SDS011;6870;50.944;6.932;2023-01-30T14:20:31;4.47;;;1.93;;
7340;SDS011;6870;50.944;6.932;2023-01-30T14:23:01;3.93;;;1.50;;
7340;SDS011;6870;50.944;6.932;2023-01-30T14:25:31;3.80;;;1.63;;
7340;SDS011;6870;50.944;6.932;2023-01-30T14:34:37;7.57;;;2.00;;
7340;SDS011;6870;50.944;6.932;2023-01-30T14:40:28;3.50;;;1.67;;
7340;SDS011;6870;50.944;6.932;2023-01-30T14:49:26;3.20;;;1.57;;
7340;SDS011;6870;50.944;6.932;2023-01-30T14:51:56;6.50;;;1.80;;
7340;SDS011;6870;50.944;6.932;2023-01-30T14:54:27;3.63;;;1.80;;
7340;SDS011;6870;50.944;6.932;2023-01-30T14:57:16;4.83;;;1.97;;
7340;SDS011;6870;50.944;6.932;2023-01-30T14:59:52;3.73;;;1.93;;
7340;SDS011;6870;50.944;6.932;2023-01-30T15:02:46;3.70;;;1.73;;
7340;SDS011;6870;50.944;6.932;2023-01-30T15:05:18;3.20;;;1.70;;
7340;SDS011;6870;50.944;6.932;2023-01-30T15:07:54;2.27;;;1.53;;
7340;SDS011;6870;50.944;6.932;2023-01-30T15:10:44;2.20;;;1.57;;
7340;SDS011;6870;50.944;6.932;2023-01-30T15:13:37;5.80;;;1.73;;
7340;SDS011;6870;50.944;6.932;2023-01-30T15:19:35;4.93;;;2.10;;
7340;SDS011;6870;50.944;6.932;2023-01-30T15:22:30;4.30;;;1.30;;
7340;SDS011;6870;50.944;6.932;2023-01-30T15:25:13;2.60;;;1.53;;
7340;SDS011;6870;50.944;6.932;2023-01-30T15:28:01;2.43;;;1.63;;
7340;SDS011;6870;50.944;6.932;2023-01-30T15:30:41;2.70;;;1.80;;
7340;SDS011;6870;50.944;6.932;2023-01-30T15:33:24;4.00;;;1.40;;
7340;SDS011;6870;50.944;6.932;2023-01-30T15:35:57;5.73;;;1.53;;
7340;SDS011;6870;50.944;6.932;2023-01-30T15:38:27;2.43;;;1.33;;
7340;SDS011;6870;50.944;6.932;2023-01-30T15:40:58;4.67;;;1.57;;
7340;SDS011;6870;50.944;6.932;2023-01-30T15:43:39;2.87;;;1.53;;
7340;SDS011;6870;50.944;6.932;2023-01-30T15:46:28;5.93;;;2.17;;
7340;SDS011;6870;50.944;6.932;2023-01-30T15:49:18;6.13;;;1.63;;
7340;SDS011;6870;50.944;6.932;2023-01-30T15:52:14;3.27;;;1.80;;
7340;SDS011;6870;50.944;6.932;2023-01-30T15:54:46;3.80;;;1.80;;
7340;SDS011;6870;50.944;6.932;2023-01-30T15:57:18;9.50;;;1.90;;
7340;SDS011;6870;50.944;6.932;2023-01-30T15:59:50;3.42;;;1.55;;
7340;SDS011;6870;50.944;6.932;2023-01-30T16:02:23;3.83;;;2.20;;
7340;SDS011;6870;50.944;6.932;2023-01-30T16:05:12;3.60;;;1.37;;
7340;SDS011;6870;50.944;6.932;2023-01-30T16:07:43;3.00;;;1.63;;
7340;SDS011;6870;50.944;6.932;2023-01-30T16:10:15;3.30;;;1.80;;
7340;SDS011;6870;50.944;6.932;2023-01-30T16:12:45;5.63;;;1.90;;
7340;SDS011;6870;50.944;6.932;2023-01-30T16:15:15;3.03;;;1.90;;
7340;SDS011;6870;50.944;6.932;2023-01-30T16:17:53;3.03;;;1.73;;
7340;SDS011;6870;50.944;6.932;2023-01-30T16:20:32;2.97;;;1.73;;
7340;SDS011;6870;50.944;6.932;2023-01-30T16:23:27;3.60;;;2.03;;
7340;SDS011;6870;50.944;6.932;2023-01-30T16:25:59;2.30;;;1.40;;
7340;SDS011;6870;50.944;6.932;2023-01-30T16:28:29;4.20;;;1.77;;